createdAt,value
2023-03-28T00:00:17.799Z,7.95
2023-03-28T00:03:08.584Z,7.93
2023-03-28T00:05:42.448Z,7.91
2023-03-28T00:08:14.876Z,7.92
2023-03-28T00:10:45.896Z,7.92
2023-03-28T00:13:20.122Z,7.90
2023-03-28T00:15:53.210Z,7.88
2023-03-28T00:18:24.074Z,7.86
2023-03-28T00:20:55.025Z,7.82
2023-03-28T00:23:26.111Z,7.80
2023-03-28T00:25:57.464Z,7.75
2023-03-28T00:28:28.556Z,7.71
2023-03-28T00:31:04.737Z,7.68
2023-03-28T00:33:35.897Z,7.70
2023-03-28T00:36:10.500Z,7.75
2023-03-28T00:38:41.954Z,7.71
2023-03-28T00:41:16.232Z,7.69
2023-03-28T00:43:47.475Z,7.68
2023-03-28T00:46:20.250Z,7.66
2023-03-28T00:48:52.203Z,7.65
2023-03-28T00:51:24.022Z,7.68
2023-03-28T00:53:54.725Z,7.65
2023-03-28T00:56:25.474Z,7.64
2023-03-28T00:58:56.478Z,7.64
2023-03-28T01:01:27.184Z,7.60
2023-03-28T01:04:02.420Z,7.59
2023-03-28T01:06:34.706Z,7.55
2023-03-28T01:09:06.663Z,7.51
2023-03-28T01:11:38.575Z,7.40
2023-03-28T01:14:09.487Z,7.29
2023-03-28T01:16:41.579Z,7.21
2023-03-28T01:19:13.581Z,7.17
2023-03-28T01:22:07.555Z,7.10
2023-03-28T01:24:55.430Z,7.03
2023-03-28T01:27:26.801Z,6.97
2023-03-28T01:30:03.573Z,6.91
2023-03-28T01:32:42.303Z,6.86
2023-03-28T01:35:20.080Z,6.80
2023-03-28T01:37:52.046Z,6.71
2023-03-28T01:40:31.424Z,6.63
2023-03-28T01:43:06.781Z,6.61
2023-03-28T01:45:39.593Z,6.56
2023-03-28T01:48:11.529Z,6.53
2023-03-28T01:50:43.387Z,6.55
2023-03-28T01:53:16.370Z,6.55
2023-03-28T01:55:49.645Z,6.60
2023-03-28T01:58:22.578Z,6.67
2023-03-28T02:00:55.099Z,6.67
2023-03-28T02:03:26.710Z,6.68
2023-03-28T02:05:58.452Z,6.68
2023-03-28T02:08:30.658Z,6.62
2023-03-28T02:11:01.542Z,6.62
2023-03-28T02:13:34.035Z,6.64
2023-03-28T02:16:05.116Z,6.68
2023-03-28T02:18:38.237Z,6.72
2023-03-28T02:21:10.462Z,6.70
2023-03-28T02:23:42.737Z,6.67
2023-03-28T02:26:13.601Z,6.68
2023-03-28T02:28:44.745Z,6.69
2023-03-28T02:31:15.564Z,6.73
2023-03-28T02:33:46.933Z,6.77
2023-03-28T02:36:30.430Z,6.75
2023-03-28T02:39:21.592Z,6.73
2023-03-28T02:41:56.070Z,6.72
2023-03-28T02:44:49.595Z,6.74
2023-03-28T02:47:21.273Z,6.75
2023-03-28T02:49:55.226Z,6.76
2023-03-28T02:52:35.028Z,6.79
2023-03-28T02:55:07.904Z,6.79
2023-03-28T02:57:39.203Z,6.74
2023-03-28T03:00:12.377Z,6.70
2023-03-28T03:02:43.283Z,6.70
2023-03-28T03:05:14.506Z,6.68
2023-03-28T03:07:45.377Z,6.67
2023-03-28T03:10:17.275Z,6.65
2023-03-28T03:12:47.930Z,6.61
2023-03-28T03:15:19.129Z,6.57
2023-03-28T03:17:50.019Z,6.52
2023-03-28T03:20:20.833Z,6.49
2023-03-28T03:22:51.594Z,6.47
2023-03-28T03:25:22.369Z,6.43
2023-03-28T03:27:53.254Z,6.45
2023-03-28T03:30:24.102Z,6.44
2023-03-28T03:32:56.185Z,6.42
2023-03-28T03:35:33.420Z,6.35
2023-03-28T03:38:04.463Z,6.32
2023-03-28T03:40:35.407Z,6.31
2023-03-28T03:43:06.168Z,6.31
2023-03-28T03:45:38.064Z,6.33
2023-03-28T03:48:08.912Z,6.35
2023-03-28T03:50:39.831Z,6.37
2023-03-28T03:53:10.898Z,6.34
2023-03-28T03:55:41.722Z,6.29
2023-03-28T03:58:12.607Z,6.25
2023-03-28T04:00:44.926Z,6.20
2023-03-28T04:03:24.486Z,6.16
2023-03-28T04:05:58.262Z,6.17
2023-03-28T04:08:29.262Z,6.17
2023-03-28T04:11:00.001Z,6.14
2023-03-28T04:13:30.610Z,6.14
2023-03-28T04:16:01.734Z,6.14
2023-03-28T04:18:34.360Z,6.14
2023-03-28T04:21:05.096Z,6.14
2023-03-28T04:23:38.836Z,6.13
2023-03-28T04:26:09.616Z,6.12
2023-03-28T04:28:40.428Z,6.11
2023-03-28T04:31:12.328Z,6.07
2023-03-28T04:33:45.415Z,6.02
2023-03-28T04:36:16.910Z,6.04
2023-03-28T04:38:47.682Z,6.05
2023-03-28T04:41:18.689Z,6.01
2023-03-28T04:43:49.542Z,5.95
2023-03-28T04:46:20.429Z,5.92
2023-03-28T04:48:56.484Z,5.90
2023-03-28T04:51:28.862Z,5.90
2023-03-28T04:53:59.727Z,5.88
2023-03-28T04:56:31.030Z,5.86
2023-03-28T04:59:01.974Z,5.83
2023-03-28T05:01:33.288Z,5.83
2023-03-28T05:04:04.196Z,5.86
2023-03-28T05:06:35.963Z,5.89
2023-03-28T05:09:09.178Z,5.88
2023-03-28T05:11:40.279Z,5.83
2023-03-28T05:14:11.109Z,5.81
2023-03-28T05:16:42.117Z,5.83
2023-03-28T05:19:13.151Z,5.83
2023-03-28T05:21:44.127Z,5.83
2023-03-28T05:24:15.002Z,5.83
2023-03-28T05:26:46.130Z,5.82
2023-03-28T05:29:16.939Z,5.83
2023-03-28T05:31:47.952Z,5.84
2023-03-28T05:34:18.829Z,5.78
2023-03-28T05:36:49.734Z,5.71
2023-03-28T05:39:20.690Z,5.66
2023-03-28T05:41:51.609Z,5.68
2023-03-28T05:44:22.514Z,5.73
2023-03-28T05:46:53.454Z,5.78
2023-03-28T05:49:24.328Z,5.79
2023-03-28T05:51:55.153Z,5.83
2023-03-28T05:54:25.853Z,5.86
2023-03-28T05:56:56.766Z,5.89
2023-03-28T05:59:28.024Z,5.87
2023-03-28T06:01:58.916Z,5.87
2023-03-28T06:04:29.904Z,5.86
2023-03-28T06:07:03.011Z,5.85
2023-03-28T06:09:36.346Z,5.85
2023-03-28T06:12:07.572Z,5.88
2023-03-28T06:14:38.368Z,5.93
2023-03-28T06:17:09.314Z,5.97
2023-03-28T06:19:40.450Z,6.00
2023-03-28T06:22:11.506Z,6.05
2023-03-28T06:24:42.480Z,6.10
2023-03-28T06:27:13.347Z,6.16
2023-03-28T06:29:44.290Z,6.21
2023-03-28T06:32:15.497Z,6.29
2023-03-28T06:34:46.510Z,6.37
2023-03-28T06:37:17.365Z,6.40
2023-03-28T06:39:50.882Z,6.38
2023-03-28T06:42:21.751Z,6.35
2023-03-28T06:44:52.733Z,6.34
2023-03-28T06:47:23.558Z,6.35
2023-03-28T06:49:54.350Z,6.32
2023-03-28T06:52:25.298Z,6.33
2023-03-28T06:54:56.310Z,6.34
2023-03-28T06:57:27.169Z,6.40
2023-03-28T06:59:58.163Z,6.49
2023-03-28T07:02:28.981Z,6.62
2023-03-28T07:04:59.785Z,6.75
2023-03-28T07:07:30.738Z,6.87
2023-03-28T07:10:01.343Z,6.96
2023-03-28T07:12:32.198Z,7.07
2023-03-28T07:15:03.244Z,7.20
2023-03-28T07:17:34.286Z,7.37
2023-03-28T07:20:05.533Z,7.51
2023-03-28T07:22:36.478Z,7.61
2023-03-28T07:25:09.103Z,7.64
2023-03-28T07:27:40.060Z,7.45
2023-03-28T07:30:12.014Z,7.31
2023-03-28T07:32:54.336Z,7.28
2023-03-28T07:35:27.704Z,7.31
2023-03-28T07:37:58.547Z,7.34
2023-03-28T07:40:29.450Z,7.34
2023-03-28T07:43:00.521Z,7.32
2023-03-28T07:45:31.615Z,7.26
2023-03-28T07:48:02.827Z,7.26
2023-03-28T07:50:34.157Z,7.29
2023-03-28T07:53:05.420Z,7.28
2023-03-28T07:58:12.594Z,7.31
2023-03-28T08:00:45.666Z,7.30
2023-03-28T08:03:16.803Z,7.30
2023-03-28T08:05:52.106Z,7.33
2023-03-28T08:08:22.989Z,7.35
2023-03-28T08:10:53.780Z,7.38
2023-03-28T08:13:24.636Z,7.45
2023-03-28T08:15:56.026Z,7.50
2023-03-28T08:18:27.197Z,7.54
2023-03-28T08:21:01.314Z,7.53
2023-03-28T08:23:32.287Z,7.54
2023-03-28T08:26:05.066Z,7.59
2023-03-28T08:28:36.400Z,7.64
2023-03-28T08:31:14.264Z,7.67
2023-03-28T08:33:45.714Z,7.67
2023-03-28T08:36:16.676Z,7.65
2023-03-28T08:38:47.882Z,7.66
2023-03-28T08:41:22.631Z,7.70
2023-03-28T08:43:59.732Z,7.79
2023-03-28T08:46:30.624Z,7.89
2023-03-28T08:49:01.893Z,7.94
2023-03-28T08:51:35.527Z,8.01
2023-03-28T08:54:08.258Z,8.06
2023-03-28T08:56:43.989Z,8.09
2023-03-28T08:59:16.850Z,8.13
2023-03-28T09:01:47.639Z,8.19
2023-03-28T09:04:23.384Z,8.26
2023-03-28T09:06:54.875Z,8.32
2023-03-28T09:09:28.785Z,8.36
2023-03-28T09:12:02.620Z,8.38
2023-03-28T09:14:46.345Z,8.35
2023-03-28T09:17:17.851Z,8.31
2023-03-28T09:19:53.065Z,8.29
2023-03-28T09:22:27.458Z,8.29
2023-03-28T09:25:00.924Z,8.31
2023-03-28T09:27:32.846Z,8.34
2023-03-28T09:30:08.368Z,8.34
2023-03-28T09:32:40.024Z,8.35
2023-03-28T09:35:15.428Z,8.37
2023-03-28T09:37:47.115Z,8.41
2023-03-28T09:40:20.171Z,8.45
2023-03-28T09:42:53.294Z,8.48
2023-03-28T09:45:27.259Z,8.52
2023-03-28T09:47:58.295Z,8.55
2023-03-28T09:50:29.186Z,8.55
2023-03-28T09:53:00.343Z,8.54
2023-03-28T09:55:31.645Z,8.57
2023-03-28T09:58:03.596Z,8.63
2023-03-28T10:00:37.592Z,8.70
2023-03-28T10:03:11.412Z,8.78
2023-03-28T10:05:43.454Z,8.88
2023-03-28T10:08:23.069Z,8.96
2023-03-28T10:10:57.814Z,8.98
2023-03-28T10:13:28.693Z,9.00
2023-03-28T10:16:00.090Z,9.06
2023-03-28T10:18:31.553Z,9.14
2023-03-28T10:21:05.074Z,9.25
2023-03-28T10:23:37.056Z,9.32
2023-03-28T10:26:09.008Z,9.38
2023-03-28T10:28:39.934Z,9.41
2023-03-28T10:31:15.959Z,9.43
2023-03-28T10:33:47.171Z,9.45
2023-03-28T10:36:25.441Z,9.44
2023-03-28T10:38:56.185Z,9.47
2023-03-28T10:41:27.195Z,9.49
2023-03-28T10:43:58.398Z,9.51
2023-03-28T10:46:30.091Z,9.49
2023-03-28T10:49:03.001Z,9.43
2023-03-28T10:51:34.004Z,9.42
2023-03-28T10:54:11.737Z,9.40
2023-03-28T10:56:44.609Z,9.38
2023-03-28T10:59:17.794Z,9.41
2023-03-28T11:01:51.874Z,9.48
2023-03-28T11:04:27.546Z,9.52
2023-03-28T11:06:59.819Z,9.58
2023-03-28T11:09:32.563Z,9.63
2023-03-28T11:12:06.954Z,9.69
2023-03-28T11:14:48.067Z,9.73
2023-03-28T11:17:21.100Z,9.77
2023-03-28T11:19:57.543Z,9.79
2023-03-28T11:22:31.072Z,9.75
2023-03-28T11:25:04.118Z,9.63
2023-03-28T11:27:36.366Z,9.60
2023-03-28T11:30:11.107Z,9.65
2023-03-28T11:32:43.068Z,9.62
2023-03-28T11:35:17.183Z,9.57
2023-03-28T11:37:49.061Z,9.53
2023-03-28T11:40:22.545Z,9.51
2023-03-28T11:42:55.354Z,9.50
2023-03-28T11:45:37.945Z,9.51
2023-03-28T11:48:19.470Z,9.51
2023-03-28T11:50:52.990Z,9.48
2023-03-28T11:53:25.186Z,9.45
2023-03-28T11:55:58.667Z,9.43
2023-03-28T11:58:29.918Z,9.44
2023-03-28T12:01:03.055Z,9.40
2023-03-28T12:03:37.588Z,9.39
2023-03-28T12:06:11.621Z,9.43
2023-03-28T12:08:43.515Z,9.48
2023-03-28T12:11:16.656Z,9.46
2023-03-28T12:13:53.207Z,9.46
2023-03-28T12:16:34.750Z,9.49
2023-03-28T12:19:05.719Z,9.57
2023-03-28T12:21:37.191Z,9.57
2023-03-28T12:24:08.768Z,9.54
2023-03-28T12:26:42.662Z,9.53
2023-03-28T12:29:16.196Z,9.54
2023-03-28T12:31:48.154Z,9.59
2023-03-28T12:34:19.608Z,9.65
2023-03-28T12:36:51.173Z,9.64
2023-03-28T12:39:25.862Z,9.61
2023-03-28T12:41:56.685Z,9.61
2023-03-28T12:44:27.905Z,9.64
2023-03-28T12:47:00.866Z,9.71
2023-03-28T12:49:34.018Z,9.80
2023-03-28T12:52:05.142Z,9.80
2023-03-28T12:54:36.338Z,9.85
2023-03-28T12:57:15.510Z,9.92
2023-03-28T13:00:09.837Z,9.99
2023-03-28T13:02:42.354Z,9.95
2023-03-28T13:05:16.220Z,9.95
2023-03-28T13:07:57.485Z,9.98
2023-03-28T13:10:31.180Z,10.01
2023-03-28T13:13:07.199Z,10.05
2023-03-28T13:15:39.624Z,10.07
2023-03-28T13:18:27.874Z,10.08
2023-03-28T13:20:59.647Z,10.10
2023-03-28T13:23:46.171Z,10.13
2023-03-28T13:26:16.886Z,10.14
2023-03-28T13:28:48.348Z,10.14
2023-03-28T13:31:23.268Z,10.12
2023-03-28T13:33:58.862Z,10.14
2023-03-28T13:36:30.868Z,10.15
2023-03-28T13:39:20.300Z,10.18
2023-03-28T13:42:00.980Z,10.13
2023-03-28T13:44:33.496Z,10.11
2023-03-28T13:47:04.487Z,10.11
2023-03-28T13:49:37.560Z,10.12
2023-03-28T13:52:09.103Z,10.05
2023-03-28T13:54:40.036Z,9.92
2023-03-28T13:57:14.812Z,9.83
2023-03-28T13:59:48.266Z,9.78
2023-03-28T14:02:20.267Z,9.72
2023-03-28T14:04:55.263Z,9.69
2023-03-28T14:07:27.333Z,9.66
2023-03-28T14:09:58.680Z,9.67
2023-03-28T14:12:30.292Z,9.69
2023-03-28T14:15:01.613Z,9.69
2023-03-28T14:17:33.243Z,9.71
2023-03-28T14:20:05.783Z,9.73
2023-03-28T14:22:45.716Z,9.80
2023-03-28T14:25:23.803Z,9.83
2023-03-28T14:27:55.383Z,9.83
2023-03-28T14:30:26.942Z,9.80
2023-03-28T14:33:02.346Z,9.75
2023-03-28T14:35:33.930Z,9.71
2023-03-28T14:38:05.654Z,9.64
2023-03-28T14:40:37.834Z,9.61
2023-03-28T14:43:10.318Z,9.60
2023-03-28T14:45:42.709Z,9.59
2023-03-28T14:48:15.877Z,9.55
2023-03-28T14:50:46.942Z,9.50
2023-03-28T14:53:20.955Z,9.53
2023-03-28T14:55:52.243Z,9.53
2023-03-28T14:58:24.126Z,9.52
2023-03-28T15:00:56.031Z,9.55
2023-03-28T15:03:28.869Z,9.52
2023-03-28T15:05:59.821Z,9.51
2023-03-28T15:08:34.608Z,9.51
2023-03-28T15:11:06.635Z,9.52
2023-03-28T15:13:38.109Z,9.54
2023-03-28T15:16:09.547Z,9.52
2023-03-28T15:18:44.524Z,9.49
2023-03-28T15:21:15.743Z,9.47
2023-03-28T15:23:50.013Z,9.42
2023-03-28T15:26:22.512Z,9.29
2023-03-28T15:28:53.351Z,9.02
2023-03-28T15:31:24.319Z,8.83
2023-03-28T15:33:55.445Z,8.55
2023-03-28T15:36:30.956Z,8.22
2023-03-28T15:39:02.741Z,8.04
2023-03-28T15:41:43.590Z,7.92
2023-03-28T15:44:23.797Z,7.83
2023-03-28T15:46:57.738Z,7.89
2023-03-28T15:49:28.788Z,7.94
2023-03-28T15:52:01.847Z,7.97
2023-03-28T15:54:32.906Z,7.93
2023-03-28T15:57:04.245Z,7.77
2023-03-28T15:59:36.221Z,7.61
2023-03-28T16:02:37.405Z,7.52
2023-03-28T16:05:09.169Z,7.39
2023-03-28T16:07:48.638Z,7.28
2023-03-28T16:10:20.450Z,7.20
2023-03-28T16:12:51.873Z,7.17
2023-03-28T16:15:22.812Z,7.11
2023-03-28T16:17:55.913Z,7.04
2023-03-28T16:20:26.657Z,7.01
2023-03-28T16:22:57.492Z,7.00
2023-03-28T16:25:29.028Z,7.02
2023-03-28T16:28:07.091Z,7.02
2023-03-28T16:30:38.885Z,7.01
2023-03-28T16:33:10.111Z,7.00
2023-03-28T16:35:41.286Z,6.98
2023-03-28T16:38:12.951Z,6.99
2023-03-28T16:40:45.479Z,6.99
2023-03-28T16:43:16.907Z,7.03
2023-03-28T16:45:51.017Z,7.07
2023-03-28T16:48:22.058Z,7.11
2023-03-28T16:50:56.843Z,7.16
2023-03-28T16:53:27.836Z,7.21
2023-03-28T16:55:58.926Z,7.23
2023-03-28T16:58:30.426Z,7.20
2023-03-28T17:01:04.509Z,7.10
2023-03-28T17:03:35.680Z,7.05
2023-03-28T17:06:08.227Z,7.02
2023-03-28T17:08:41.521Z,6.98
2023-03-28T17:11:13.060Z,6.90
2023-03-28T17:13:44.061Z,6.81
2023-03-28T17:16:15.103Z,6.76
2023-03-28T17:18:46.029Z,6.72
2023-03-28T17:21:17.381Z,6.63
2023-03-28T17:23:48.628Z,6.58
2023-03-28T17:26:19.510Z,6.57
2023-03-28T17:28:51.794Z,6.59
2023-03-28T17:31:22.853Z,6.60
2023-03-28T17:33:53.721Z,6.62
2023-03-28T17:36:25.482Z,6.60
2023-03-28T17:38:56.828Z,6.59
2023-03-28T17:41:28.026Z,6.52
2023-03-28T17:44:00.150Z,6.45
2023-03-28T17:46:31.184Z,6.39
2023-03-28T17:49:02.455Z,6.34
2023-03-28T17:51:33.402Z,6.29
2023-03-28T17:54:07.065Z,6.24
2023-03-28T17:56:37.927Z,6.23
2023-03-28T17:59:08.669Z,6.22
2023-03-28T18:01:39.728Z,6.25
2023-03-28T18:04:11.650Z,6.28
2023-03-28T18:06:49.981Z,6.34
2023-03-28T18:09:21.678Z,6.41
2023-03-28T18:11:52.779Z,6.46
2023-03-28T18:14:23.741Z,6.50
2023-03-28T18:16:56.486Z,6.54
2023-03-28T18:19:27.330Z,6.58
2023-03-28T18:21:58.394Z,6.64
2023-03-28T18:24:31.385Z,6.70
2023-03-28T18:27:04.849Z,6.72
2023-03-28T18:29:35.998Z,6.71
2023-03-28T18:32:09.561Z,6.73
2023-03-28T18:34:41.612Z,6.74
2023-03-28T18:37:13.333Z,6.73
2023-03-28T18:39:45.614Z,6.72
2023-03-28T18:42:16.595Z,6.73
2023-03-28T18:44:47.656Z,6.73
2023-03-28T18:47:22.219Z,6.72
2023-03-28T18:49:53.296Z,6.70
2023-03-28T18:52:34.424Z,6.69
2023-03-28T18:55:12.292Z,6.67
2023-03-28T18:57:43.330Z,6.66
2023-03-28T19:00:18.830Z,6.61
2023-03-28T19:02:50.518Z,6.59
2023-03-28T19:05:22.245Z,6.59
2023-03-28T19:07:53.156Z,6.56
2023-03-28T19:10:23.926Z,6.51
2023-03-28T19:12:56.249Z,6.50
2023-03-28T19:15:29.133Z,6.48
2023-03-28T19:18:02.974Z,6.50
2023-03-28T19:20:38.441Z,6.51
2023-03-28T19:23:09.556Z,6.52
2023-03-28T19:25:42.674Z,6.53
2023-03-28T19:28:16.175Z,6.51
2023-03-28T19:30:47.962Z,6.48
2023-03-28T19:33:22.821Z,6.47
2023-03-28T19:35:54.248Z,6.46
2023-03-28T19:38:31.095Z,6.45
2023-03-28T19:41:10.732Z,6.45
2023-03-28T19:43:42.955Z,6.49
2023-03-28T19:46:14.480Z,6.54
2023-03-28T19:48:45.471Z,6.59
2023-03-28T19:51:18.864Z,6.63
2023-03-28T19:53:49.752Z,6.66
2023-03-28T19:56:20.651Z,6.66
2023-03-28T19:58:52.092Z,6.59
2023-03-28T20:01:23.124Z,6.52
2023-03-28T20:03:54.947Z,6.45
2023-03-28T20:06:26.866Z,6.41
2023-03-28T20:08:57.925Z,6.27
2023-03-28T20:11:29.840Z,6.13
2023-03-28T20:14:01.637Z,5.98
2023-03-28T20:16:44.925Z,5.77
2023-03-28T20:19:18.204Z,5.64
2023-03-28T20:21:49.242Z,5.56
2023-03-28T20:24:20.138Z,5.54
2023-03-28T20:26:51.559Z,5.45
2023-03-28T20:29:22.243Z,5.37
2023-03-28T20:31:56.923Z,5.20
2023-03-28T20:34:32.751Z,5.05
2023-03-28T20:37:13.982Z,4.90
2023-03-28T20:39:48.586Z,4.85
2023-03-28T20:42:21.108Z,4.88
2023-03-28T20:44:59.021Z,4.86
2023-03-28T20:47:30.562Z,4.75
2023-03-28T20:50:07.337Z,4.66
2023-03-28T20:52:46.760Z,4.66
2023-03-28T20:55:31.483Z,4.62
2023-03-28T20:58:08.050Z,4.56
2023-03-28T21:00:40.216Z,4.54
2023-03-28T21:03:12.352Z,4.52
2023-03-28T21:05:46.174Z,4.51
2023-03-28T21:08:19.760Z,4.50
2023-03-28T21:10:54.610Z,4.51
2023-03-28T21:13:26.521Z,4.55
2023-03-28T21:15:57.575Z,4.63
2023-03-28T21:18:29.027Z,4.67
2023-03-28T21:21:00.211Z,4.68
2023-03-28T21:23:31.226Z,4.72
2023-03-28T21:26:02.229Z,4.76
2023-03-28T21:28:33.594Z,4.76
2023-03-28T21:31:05.191Z,4.77
2023-03-28T21:33:36.715Z,4.74
2023-03-28T21:36:08.501Z,4.69
2023-03-28T21:38:39.303Z,4.61
2023-03-28T21:41:11.407Z,4.54
2023-03-28T21:43:42.397Z,4.49
2023-03-28T21:46:13.824Z,4.46
2023-03-28T21:48:48.278Z,4.46
2023-03-28T21:51:19.577Z,4.46
2023-03-28T21:53:50.510Z,4.45
2023-03-28T21:56:21.532Z,4.41
2023-03-28T21:58:52.621Z,4.40
2023-03-28T22:01:23.530Z,4.36
2023-03-28T22:03:54.469Z,4.36
2023-03-28T22:06:26.361Z,4.35
2023-03-28T22:08:57.236Z,4.35
2023-03-28T22:11:30.874Z,4.36
2023-03-28T22:14:05.495Z,4.40
2023-03-28T22:16:37.656Z,4.41
2023-03-28T22:19:09.844Z,4.43
2023-03-28T22:21:40.844Z,4.39
2023-03-28T22:24:13.424Z,4.37
2023-03-28T22:26:45.131Z,4.38
2023-03-28T22:29:17.185Z,4.37
2023-03-28T22:31:48.046Z,4.36
2023-03-28T22:34:21.029Z,4.38
2023-03-28T22:36:53.581Z,4.37
2023-03-28T22:39:25.400Z,4.33
2023-03-28T22:41:56.327Z,4.31
2023-03-28T22:44:28.096Z,4.28
2023-03-28T22:47:02.492Z,4.25
2023-03-28T22:49:34.225Z,4.22
2023-03-28T22:52:06.455Z,4.21
2023-03-28T22:54:37.559Z,4.23
2023-03-28T22:57:08.557Z,4.25
2023-03-28T22:59:40.190Z,4.26
2023-03-28T23:02:11.610Z,4.31
2023-03-28T23:04:42.505Z,4.39
2023-03-28T23:07:13.696Z,4.39
2023-03-28T23:09:44.524Z,4.42
2023-03-28T23:12:15.412Z,4.45
2023-03-28T23:14:47.760Z,4.46
2023-03-28T23:17:19.198Z,4.45
2023-03-28T23:19:50.311Z,4.48
2023-03-28T23:22:21.688Z,4.51
2023-03-28T23:24:52.477Z,4.56
2023-03-28T23:27:23.301Z,4.58
2023-03-28T23:29:54.127Z,4.55
2023-03-28T23:32:25.024Z,4.51
2023-03-28T23:34:55.819Z,4.45
2023-03-28T23:37:27.629Z,4.45
2023-03-28T23:39:58.664Z,4.46
2023-03-28T23:42:29.607Z,4.44
2023-03-28T23:45:00.532Z,4.35
2023-03-28T23:47:31.237Z,4.23
2023-03-28T23:50:02.235Z,4.17
2023-03-28T23:52:33.021Z,4.12
2023-03-28T23:55:03.976Z,4.02
2023-03-28T23:57:34.850Z,4.02
